sensor_id;sensor_type;location;lat;lon;timestamp;pressure;altitude;pressure_sealevel;temperature;humidity
2268;BME280;11052;43.338;25.502;2024-02-15T00:01:14;101199.59;;;7.33;100.00
2268;BME280;11052;43.338;25.502;2024-02-15T00:03:41;101205.63;;;7.31;100.00
2268;BME280;11052;43.338;25.502;2024-02-15T00:06:08;101197.03;;;7.26;100.00
2268;BME280;11052;43.338;25.502;2024-02-15T00:08:35;101204.78;;;7.29;100.00
2268;BME280;11052;43.338;25.502;2024-02-15T00:11:03;101206.50;;;7.31;100.00
2268;BME280;11052;43.338;25.502;2024-02-15T00:13:30;101197.03;;;7.33;100.00
2268;BME280;11052;43.338;25.502;2024-02-15T00:15:59;101198.75;;;7.36;100.00
2268;BME280;11052;43.338;25.502;2024-02-15T00:18:28;101203.03;;;7.38;100.00
2268;BME280;11052;43.338;25.502;2024-02-15T00:20:56;101203.91;;;7.36;100.00
2268;BME280;11052;43.338;25.502;2024-02-15T00:23:23;101199.59;;;7.32;100.00
2268;BME280;11052;43.338;25.502;2024-02-15T00:25:50;101199.59;;;7.32;100.00
2268;BME280;11052;43.338;25.502;2024-02-15T00:28:17;101199.63;;;7.26;100.00
2268;BME280;11052;43.338;25.502;2024-02-15T00:30:45;101203.06;;;7.29;100.00
2268;BME280;11052;43.338;25.502;2024-02-15T00:33:13;101197.88;;;7.32;100.00
2268;BME280;11052;43.338;25.502;2024-02-15T00:35:42;101197.03;;;7.32;100.00
2268;BME280;11052;43.338;25.502;2024-02-15T00:38:09;101197.91;;;7.31;100.00
2268;BME280;11052;43.338;25.502;2024-02-15T00:40:36;101205.63;;;7.24;100.00
2268;BME280;11052;43.338;25.502;2024-02-15T00:43:03;101200.47;;;7.23;100.00
2268;BME280;11052;43.338;25.502;2024-02-15T00:45:31;101213.38;;;7.23;100.00
2268;BME280;11052;43.338;25.502;2024-02-15T00:47:58;101214.25;;;7.22;100.00
2268;BME280;11052;43.338;25.502;2024-02-15T00:50:25;101205.66;;;7.21;100.00
2268;BME280;11052;43.338;25.502;2024-02-15T00:52:54;101212.53;;;7.19;100.00
2268;BME280;11052;43.338;25.502;2024-02-15T00:55:21;101212.53;;;7.24;100.00
2268;BME280;11052;43.338;25.502;2024-02-15T00:57:48;101214.25;;;7.25;100.00
2268;BME280;11052;43.338;25.502;2024-02-15T01:00:16;101215.94;;;7.26;100.00
2268;BME280;11052;43.338;25.502;2024-02-15T01:02:43;101219.41;;;7.25;100.00
2268;BME280;11052;43.338;25.502;2024-02-15T01:05:11;101222.81;;;7.27;100.00
2268;BME280;11052;43.338;25.502;2024-02-15T01:07:41;101221.09;;;7.28;100.00
2268;BME280;11052;43.338;25.502;2024-02-15T01:10:09;101216.81;;;7.25;100.00
2268;BME280;11052;43.338;25.502;2024-02-15T01:12:37;101217.66;;;7.27;100.00
2268;BME280;11052;43.338;25.502;2024-02-15T01:15:05;101221.09;;;7.28;100.00
2268;BME280;11052;43.338;25.502;2024-02-15T01:17:32;101221.13;;;7.21;100.00
2268;BME280;11052;43.338;25.502;2024-02-15T01:20:00;101213.38;;;7.20;100.00
2268;BME280;11052;43.338;25.502;2024-02-15T01:22:27;101222.84;;;7.22;100.00
2268;BME280;11052;43.338;25.502;2024-02-15T01:24:54;101216.81;;;7.22;100.00
2268;BME280;11052;43.338;25.502;2024-02-15T01:27:23;101226.28;;;7.17;100.00
2268;BME280;11052;43.338;25.502;2024-02-15T01:29:53;101235.72;;;7.16;100.00
2268;BME280;11052;43.338;25.502;2024-02-15T01:32:20;101233.16;;;7.16;100.00
2268;BME280;11052;43.338;25.502;2024-02-15T01:34:48;101231.44;;;7.11;100.00
2268;BME280;11052;43.338;25.502;2024-02-15T01:37:17;101232.28;;;7.13;100.00
2268;BME280;11052;43.338;25.502;2024-02-15T01:39:44;101236.59;;;7.12;100.00
2268;BME280;11052;43.338;25.502;2024-02-15T01:42:11;101237.47;;;7.08;100.00
2268;BME280;11052;43.338;25.502;2024-02-15T01:44:41;101235.75;;;7.00;100.00
2268;BME280;11052;43.338;25.502;2024-02-15T01:47:10;101234.88;;;6.96;100.00
2268;BME280;11052;43.338;25.502;2024-02-15T01:49:37;101230.59;;;6.97;100.00
2268;BME280;11052;43.338;25.502;2024-02-15T01:52:08;101240.03;;;6.98;100.00
2268;BME280;11052;43.338;25.502;2024-02-15T01:54:35;101231.47;;;6.93;100.00
2268;BME280;11052;43.338;25.502;2024-02-15T01:57:04;101239.22;;;6.89;100.00
2268;BME280;11052;43.338;25.502;2024-02-15T01:59:32;101240.91;;;6.68;100.00
2268;BME280;11052;43.338;25.502;2024-02-15T02:02:02;101244.34;;;6.64;100.00
2268;BME280;11052;43.338;25.502;2024-02-15T02:04:31;101243.50;;;6.65;100.00
2268;BME280;11052;43.338;25.502;2024-02-15T02:06:58;101237.47;;;6.66;100.00
2268;BME280;11052;43.338;25.502;2024-02-15T02:09:25;101244.34;;;6.67;100.00
2268;BME280;11052;43.338;25.502;2024-02-15T02:11:52;101245.22;;;6.66;100.00
2268;BME280;11052;43.338;25.502;2024-02-15T02:14:20;101239.19;;;6.53;100.00
2268;BME280;11052;43.338;25.502;2024-02-15T02:16:48;101238.31;;;6.54;100.00
2268;BME280;11052;43.338;25.502;2024-02-15T02:19:16;101227.16;;;6.56;100.00
2268;BME280;11052;43.338;25.502;2024-02-15T02:21:43;101234.91;;;6.61;100.00
2268;BME280;11052;43.338;25.502;2024-02-15T02:24:13;101246.06;;;6.65;100.00
2268;BME280;11052;43.338;25.502;2024-02-15T02:26:42;101244.31;;;6.39;100.00
2268;BME280;11052;43.338;25.502;2024-02-15T02:29:10;101242.53;;;6.21;100.00
2268;BME280;11052;43.338;25.502;2024-02-15T02:31:38;101250.25;;;6.18;100.00
2268;BME280;11052;43.338;25.502;2024-02-15T02:34:05;101247.69;;;6.21;100.00
2268;BME280;11052;43.338;25.502;2024-02-15T02:36:33;101250.25;;;6.24;100.00
2268;BME280;11052;43.338;25.502;2024-02-15T02:39:00;101252.84;;;6.28;100.00
2268;BME280;11052;43.338;25.502;2024-02-15T02:41:27;101258.88;;;6.33;100.00
2268;BME280;11052;43.338;25.502;2024-02-15T02:43:56;101250.31;;;6.40;100.00
2268;BME280;11052;43.338;25.502;2024-02-15T02:46:24;101248.59;;;6.42;100.00
2268;BME280;11052;43.338;25.502;2024-02-15T02:48:51;101252.03;;;6.50;100.00
2268;BME280;11052;43.338;25.502;2024-02-15T02:51:18;101252.06;;;6.51;100.00
2268;BME280;11052;43.338;25.502;2024-02-15T02:53:45;101252.91;;;6.52;100.00
2268;BME280;11052;43.338;25.502;2024-02-15T02:56:12;101259.78;;;6.54;100.00
2268;BME280;11052;43.338;25.502;2024-02-15T02:58:40;101261.50;;;6.54;100.00
2268;BME280;11052;43.338;25.502;2024-02-15T03:01:10;101254.63;;;6.51;100.00
2268;BME280;11052;43.338;25.502;2024-02-15T03:03:38;101258.91;;;6.42;100.00
2268;BME280;11052;43.338;25.502;2024-02-15T03:06:06;101259.75;;;6.39;100.00
2268;BME280;11052;43.338;25.502;2024-02-15T03:08:33;101260.59;;;6.34;100.00
2268;BME280;11052;43.338;25.502;2024-02-15T03:11:00;101259.72;;;6.33;100.00
2268;BME280;11052;43.338;25.502;2024-02-15T03:13:27;101259.75;;;6.35;100.00
2268;BME280;11052;43.338;25.502;2024-02-15T03:15:54;101258.84;;;6.28;100.00
2268;BME280;11052;43.338;25.502;2024-02-15T03:18:23;101257.16;;;6.30;100.00
2268;BME280;11052;43.338;25.502;2024-02-15T03:20:50;101257.16;;;6.35;100.00
2268;BME280;11052;43.338;25.502;2024-02-15T03:23:17;101254.59;;;6.39;100.00
2268;BME280;11052;43.338;25.502;2024-02-15T03:25:44;101246.03;;;6.42;100.00
2268;BME280;11052;43.338;25.502;2024-02-15T03:28:11;101245.16;;;6.44;100.00
2268;BME280;11052;43.338;25.502;2024-02-15T03:30:39;101240.88;;;6.40;100.00
2268;BME280;11052;43.338;25.502;2024-02-15T03:33:06;101243.44;;;6.45;100.00
2268;BME280;11052;43.338;25.502;2024-02-15T03:35:34;101239.16;;;6.38;100.00
2268;BME280;11052;43.338;25.502;2024-02-15T03:38:03;101239.13;;;6.32;100.00
2268;BME280;11052;43.338;25.502;2024-02-15T03:40:30;101243.41;;;6.30;100.00
2268;BME280;11052;43.338;25.502;2024-02-15T03:42:57;101246.00;;;6.31;100.00
2268;BME280;11052;43.338;25.502;2024-02-15T03:45:25;101245.13;;;6.24;100.00
2268;BME280;11052;43.338;25.502;2024-02-15T03:47:52;101244.25;;;6.22;100.00
2268;BME280;11052;43.338;25.502;2024-02-15T03:50:19;101254.56;;;6.24;100.00
2268;BME280;11052;43.338;25.502;2024-02-15T03:52:49;101250.25;;;6.18;100.00
2268;BME280;11052;43.338;25.502;2024-02-15T03:55:17;101253.69;;;6.22;100.00
2268;BME280;11052;43.338;25.502;2024-02-15T03:57:45;101263.97;;;6.17;100.00
2268;BME280;11052;43.338;25.502;2024-02-15T04:00:13;101263.09;;;6.15;100.00
2268;BME280;11052;43.338;25.502;2024-02-15T04:02:42;101268.25;;;6.12;100.00
2268;BME280;11052;43.338;25.502;2024-02-15T04:05:09;101272.53;;;6.12;100.00
2268;BME280;11052;43.338;25.502;2024-02-15T04:07:37;101277.66;;;6.00;100.00
2268;BME280;11052;43.338;25.502;2024-02-15T04:10:07;101285.28;;;5.87;100.00
2268;BME280;11052;43.338;25.502;2024-02-15T04:12:34;101281.00;;;5.88;100.00
2268;BME280;11052;43.338;25.502;2024-02-15T04:15:02;101280.19;;;5.92;100.00
2268;BME280;11052;43.338;25.502;2024-02-15T04:17:37;101283.66;;;5.97;100.00
2268;BME280;11052;43.338;25.502;2024-02-15T04:20:05;101285.41;;;6.03;100.00
2268;BME280;11052;43.338;25.502;2024-02-15T04:22:32;101286.25;;;6.03;100.00
2268;BME280;11052;43.338;25.502;2024-02-15T04:25:04;101281.97;;;6.04;100.00
2268;BME280;11052;43.338;25.502;2024-02-15T04:27:33;101280.25;;;6.09;100.00
2268;BME280;11052;43.338;25.502;2024-02-15T04:30:00;101282.81;;;6.07;100.00
2268;BME280;11052;43.338;25.502;2024-02-15T04:32:27;101280.25;;;6.04;100.00
2268;BME280;11052;43.338;25.502;2024-02-15T04:34:59;101282.81;;;6.07;100.00
2268;BME280;11052;43.338;25.502;2024-02-15T04:37:26;101288.81;;;6.03;100.00
2268;BME280;11052;43.338;25.502;2024-02-15T04:39:57;101281.94;;;5.99;100.00
2268;BME280;11052;43.338;25.502;2024-02-15T04:42:33;101286.22;;;5.99;100.00
2268;BME280;11052;43.338;25.502;2024-02-15T04:45:00;101283.63;;;5.93;100.00
2268;BME280;11052;43.338;25.502;2024-02-15T04:47:27;101285.34;;;5.90;100.00
2268;BME280;11052;43.338;25.502;2024-02-15T04:49:55;101287.84;;;5.87;100.00
2268;BME280;11052;43.338;25.502;2024-02-15T04:52:22;101293.00;;;5.86;100.00
2268;BME280;11052;43.338;25.502;2024-02-15T04:54:50;101289.53;;;5.81;100.00
2268;BME280;11052;43.338;25.502;2024-02-15T04:57:19;101298.09;;;5.75;100.00
2268;BME280;11052;43.338;25.502;2024-02-15T04:59:49;101297.19;;;5.69;100.00
2268;BME280;11052;43.338;25.502;2024-02-15T05:02:16;101303.16;;;5.63;100.00
2268;BME280;11052;43.338;25.502;2024-02-15T05:04:45;101300.53;;;5.54;100.00
2268;BME280;11052;43.338;25.502;2024-02-15T05:07:13;101309.97;;;5.58;100.00
2268;BME280;11052;43.338;25.502;2024-02-15T05:09:42;101310.69;;;5.37;100.00
2268;BME280;11052;43.338;25.502;2024-02-15T05:12:09;101312.34;;;5.29;100.00
2268;BME280;11052;43.338;25.502;2024-02-15T05:14:37;101316.56;;;5.21;100.00
2268;BME280;11052;43.338;25.502;2024-02-15T05:17:05;101325.13;;;5.18;100.00
2268;BME280;11052;43.338;25.502;2024-02-15T05:19:35;101330.19;;;5.08;100.00
2268;BME280;11052;43.338;25.502;2024-02-15T05:22:02;101332.72;;;5.03;100.00
2268;BME280;11052;43.338;25.502;2024-02-15T05:24:31;101322.34;;;4.94;100.00
2268;BME280;11052;43.338;25.502;2024-02-15T05:26:59;101325.56;;;4.73;100.00
2268;BME280;11052;43.338;25.502;2024-02-15T05:29:26;101331.38;;;4.57;100.00
2268;BME280;11052;43.338;25.502;2024-02-15T05:31:53;101335.66;;;4.58;100.00
2268;BME280;11052;43.338;25.502;2024-02-15T05:34:23;101330.56;;;4.61;100.00
2268;BME280;11052;43.338;25.502;2024-02-15T05:36:50;101341.66;;;4.57;100.00
2268;BME280;11052;43.338;25.502;2024-02-15T05:39:17;101344.22;;;4.57;100.00
2268;BME280;11052;43.338;25.502;2024-02-15T05:41:48;101346.63;;;4.45;100.00
2268;BME280;11052;43.338;25.502;2024-02-15T05:44:15;101353.34;;;4.31;100.00
2268;BME280;11052;43.338;25.502;2024-02-15T05:46:46;101360.06;;;4.21;100.00
2268;BME280;11052;43.338;25.502;2024-02-15T05:49:13;101361.69;;;4.14;100.00
2268;BME280;11052;43.338;25.502;2024-02-15T05:51:44;101356.56;;;4.14;100.00
2268;BME280;11052;43.338;25.502;2024-02-15T05:54:13;101364.19;;;4.10;100.00
2268;BME280;11052;43.338;25.502;2024-02-15T05:56:40;101366.72;;;4.07;100.00
2268;BME280;11052;43.338;25.502;2024-02-15T05:59:08;101371.84;;;4.07;100.00
2268;BME280;11052;43.338;25.502;2024-02-15T06:01:36;101380.38;;;4.06;100.00
2268;BME280;11052;43.338;25.502;2024-02-15T06:04:04;101382.13;;;4.08;100.00
2268;BME280;11052;43.338;25.502;2024-02-15T06:06:33;101383.16;;;4.21;100.00
2268;BME280;11052;43.338;25.502;2024-02-15T06:09:02;101384.84;;;4.20;100.00
2268;BME280;11052;43.338;25.502;2024-02-15T06:11:30;101388.38;;;4.27;100.00
2268;BME280;11052;43.338;25.502;2024-02-15T06:13:58;101385.81;;;4.28;100.00
2268;BME280;11052;43.338;25.502;2024-02-15T06:16:25;101388.44;;;4.35;100.00
2268;BME280;11052;43.338;25.502;2024-02-15T06:18:53;101390.25;;;4.42;100.00
2268;BME280;11052;43.338;25.502;2024-02-15T06:21:21;101390.28;;;4.45;100.00
2268;BME280;11052;43.338;25.502;2024-02-15T06:23:49;101390.28;;;4.45;100.00
2268;BME280;11052;43.338;25.502;2024-02-15T06:26:18;101399.59;;;4.38;100.00
2268;BME280;11052;43.338;25.502;2024-02-15T06:28:46;101396.97;;;4.31;100.00
2268;BME280;11052;43.338;25.502;2024-02-15T06:31:31;101400.41;;;4.33;100.00
2268;BME280;11052;43.338;25.502;2024-02-15T06:34:15;101404.81;;;4.44;100.00
2268;BME280;11052;43.338;25.502;2024-02-15T06:37:00;101405.84;;;4.58;100.00
2268;BME280;11052;43.338;25.502;2024-02-15T06:39:44;101410.38;;;4.78;100.00
2268;BME280;11052;43.338;25.502;2024-02-15T06:42:14;101406.25;;;4.93;100.00
2268;BME280;11052;43.338;25.502;2024-02-15T06:44:41;101408.94;;;5.03;100.00
2268;BME280;11052;43.338;25.502;2024-02-15T06:47:09;101415.84;;;5.08;100.00
2268;BME280;11052;43.338;25.502;2024-02-15T06:49:37;101409.94;;;5.17;100.00
2268;BME280;11052;43.338;25.502;2024-02-15T06:52:06;101418.59;;;5.28;100.00
2268;BME280;11052;43.338;25.502;2024-02-15T06:54:34;101420.34;;;5.32;100.00
2268;BME280;11052;43.338;25.502;2024-02-15T06:57:02;101411.00;;;5.43;100.00
2268;BME280;11052;43.338;25.502;2024-02-15T06:59:31;101416.16;;;5.45;100.00
2268;BME280;11052;43.338;25.502;2024-02-15T07:01:59;101411.19;;;5.65;100.00
2268;BME280;11052;43.338;25.502;2024-02-15T07:04:26;101412.91;;;5.66;100.00
2268;BME280;11052;43.338;25.502;2024-02-15T07:06:53;101410.38;;;5.69;100.00
2268;BME280;11052;43.338;25.502;2024-02-15T07:09:21;101413.22;;;6.07;100.00
2268;BME280;11052;43.338;25.502;2024-02-15T07:11:50;101407.47;;;6.52;100.00
2268;BME280;11052;43.338;25.502;2024-02-15T07:14:17;101405.88;;;6.87;100.00
2268;BME280;11052;43.338;25.502;2024-02-15T07:16:46;101406.78;;;7.35;100.00
2268;BME280;11052;43.338;25.502;2024-02-15T07:19:15;101401.66;;;7.76;100.00
2268;BME280;11052;43.338;25.502;2024-02-15T07:21:42;101408.47;;;8.02;100.00
2268;BME280;11052;43.338;25.502;2024-02-15T07:24:09;101409.28;;;8.19;100.00
2268;BME280;11052;43.338;25.502;2024-02-15T07:26:36;101419.63;;;8.36;100.00
2268;BME280;11052;43.338;25.502;2024-02-15T07:29:04;101414.41;;;8.51;100.00
2268;BME280;11052;43.338;25.502;2024-02-15T07:31:33;101414.38;;;8.62;100.00
2268;BME280;11052;43.338;25.502;2024-02-15T07:34:02;101408.25;;;8.72;100.00
2268;BME280;11052;43.338;25.502;2024-02-15T07:36:30;101406.50;;;8.77;100.00
2268;BME280;11052;43.338;25.502;2024-02-15T07:38:57;101406.53;;;8.69;100.00
2268;BME280;11052;43.338;25.502;2024-02-15T07:41:26;101405.59;;;8.87;100.00
2268;BME280;11052;43.338;25.502;2024-02-15T07:43:53;101407.28;;;8.93;100.00
2268;BME280;11052;43.338;25.502;2024-02-15T07:46:21;101401.19;;;9.07;100.00
2268;BME280;11052;43.338;25.502;2024-02-15T07:48:49;101403.66;;;9.23;100.00
2268;BME280;11052;43.338;25.502;2024-02-15T07:51:20;101398.50;;;9.23;100.00
2268;BME280;11052;43.338;25.502;2024-02-15T07:53:47;101396.59;;;9.44;100.00
2268;BME280;11052;43.338;25.502;2024-02-15T07:56:16;101398.25;;;9.53;100.00
2268;BME280;11052;43.338;25.502;2024-02-15T07:58:44;101398.22;;;9.56;100.00
2268;BME280;11052;43.338;25.502;2024-02-15T08:01:12;101398.09;;;9.68;100.00
2268;BME280;11052;43.338;25.502;2024-02-15T08:03:39;101405.09;;;9.57;100.00
2268;BME280;11052;43.338;25.502;2024-02-15T08:06:10;101406.66;;;9.76;100.00
2268;BME280;11052;43.338;25.502;2024-02-15T08:08:40;101405.81;;;9.76;100.00
2268;BME280;11052;43.338;25.502;2024-02-15T08:11:08;101401.22;;;10.04;100.00
2268;BME280;11052;43.338;25.502;2024-02-15T08:13:42;101406.47;;;9.98;100.00
2268;BME280;11052;43.338;25.502;2024-02-15T08:16:10;101404.84;;;9.88;100.00
2268;BME280;11052;43.338;25.502;2024-02-15T08:18:38;101402.13;;;10.01;100.00
2268;BME280;11052;43.338;25.502;2024-02-15T08:21:05;101393.34;;;10.16;100.00
2268;BME280;11052;43.338;25.502;2024-02-15T08:23:32;101395.69;;;10.39;100.00
2268;BME280;11052;43.338;25.502;2024-02-15T08:26:01;101393.78;;;10.53;100.00
2268;BME280;11052;43.338;25.502;2024-02-15T08:28:28;101386.91;;;10.49;100.00
2268;BME280;11052;43.338;25.502;2024-02-15T08:30:55;101390.34;;;10.49;100.00
2268;BME280;11052;43.338;25.502;2024-02-15T08:33:23;101390.34;;;10.51;100.00
2268;BME280;11052;43.338;25.502;2024-02-15T08:35:50;101394.44;;;10.69;100.00
2268;BME280;11052;43.338;25.502;2024-02-15T08:38:20;101382.06;;;10.89;100.00
2268;BME280;11052;43.338;25.502;2024-02-15T08:40:47;101379.53;;;10.84;100.00
2268;BME280;11052;43.338;25.502;2024-02-15T08:43:16;101382.88;;;10.93;100.00
2268;BME280;11052;43.338;25.502;2024-02-15T08:45:43;101375.16;;;10.90;100.00
2268;BME280;11052;43.338;25.502;2024-02-15T08:48:11;101379.50;;;10.88;100.00
2268;BME280;11052;43.338;25.502;2024-02-15T08:50:38;101380.28;;;10.93;100.00
2268;BME280;11052;43.338;25.502;2024-02-15T08:53:07;101380.06;;;11.08;100.00
2268;BME280;11052;43.338;25.502;2024-02-15T08:55:34;101373.22;;;11.02;100.00
2268;BME280;11052;43.338;25.502;2024-02-15T08:58:02;101378.16;;;11.19;100.00
2268;BME280;11052;43.338;25.502;2024-02-15T09:00:31;101375.84;;;11.01;100.00
2268;BME280;11052;43.338;25.502;2024-02-15T09:02:58;101372.81;;;11.28;100.00
2268;BME280;11052;43.338;25.502;2024-02-15T09:05:25;101376.63;;;11.07;100.00
2268;BME280;11052;43.338;25.502;2024-02-15T09:07:53;101369.84;;;10.97;100.00
2268;BME280;11052;43.338;25.502;2024-02-15T09:10:20;101369.13;;;10.86;100.00
2268;BME280;11052;43.338;25.502;2024-02-15T09:12:49;101364.81;;;10.87;100.00
2268;BME280;11052;43.338;25.502;2024-02-15T09:15:16;101374.00;;;11.09;100.00
2268;BME280;11052;43.338;25.502;2024-02-15T09:17:45;101367.41;;;11.42;100.00
2268;BME280;11052;43.338;25.502;2024-02-15T09:20:12;101373.41;;;11.44;100.00
2268;BME280;11052;43.338;25.502;2024-02-15T09:22:41;101368.94;;;11.54;100.00
2268;BME280;11052;43.338;25.502;2024-02-15T09:25:09;101375.84;;;11.55;100.00
2268;BME280;11052;43.338;25.502;2024-02-15T09:27:36;101367.91;;;11.62;100.00
2268;BME280;11052;43.338;25.502;2024-02-15T09:30:04;101369.56;;;11.68;100.00
2268;BME280;11052;43.338;25.502;2024-02-15T09:32:35;101368.84;;;11.58;100.00
2268;BME280;11052;43.338;25.502;2024-02-15T09:35:05;101363.56;;;11.64;100.00
2268;BME280;11052;43.338;25.502;2024-02-15T09:37:33;101362.84;;;11.55;100.00
2268;BME280;11052;43.338;25.502;2024-02-15T09:40:00;101363.56;;;11.64;100.00
2268;BME280;11052;43.338;25.502;2024-02-15T09:42:32;101359.94;;;11.73;100.00
2268;BME280;11052;43.338;25.502;2024-02-15T09:45:00;101353.97;;;11.68;100.00
2268;BME280;11052;43.338;25.502;2024-02-15T09:47:34;101359.19;;;11.66;100.00
2268;BME280;11052;43.338;25.502;2024-02-15T09:50:01;101354.72;;;11.74;100.00
2268;BME280;11052;43.338;25.502;2024-02-15T09:52:31;101346.84;;;11.80;100.00
2268;BME280;11052;43.338;25.502;2024-02-15T09:55:03;101343.16;;;11.94;100.00
2268;BME280;11052;43.338;25.502;2024-02-15T09:57:30;101346.59;;;11.94;100.00
2268;BME280;11052;43.338;25.502;2024-02-15T09:59:58;101335.09;;;12.07;100.00
2268;BME280;11052;43.338;25.502;2024-02-15T10:02:26;101331.03;;;11.93;100.00
2268;BME280;11052;43.338;25.502;2024-02-15T10:04:53;101333.72;;;11.88;100.00
2268;BME280;11052;43.338;25.502;2024-02-15T10:07:23;101326.03;;;11.82;100.00
2268;BME280;11052;43.338;25.502;2024-02-15T10:09:51;101324.53;;;12.13;100.00
2268;BME280;11052;43.338;25.502;2024-02-15T10:12:18;101320.88;;;12.24;100.00
2268;BME280;11052;43.338;25.502;2024-02-15T10:14:48;101324.91;;;11.97;100.00
2268;BME280;11052;43.338;25.502;2024-02-15T10:17:18;101313.59;;;11.99;100.00
2268;BME280;11052;43.338;25.502;2024-02-15T10:20:02;101315.13;;;12.09;100.00
2268;BME280;11052;43.338;25.502;2024-02-15T10:22:29;101318.66;;;12.05;100.00
2268;BME280;11052;43.338;25.502;2024-02-15T10:25:12;101310.19;;;11.96;100.00
2268;BME280;11052;43.338;25.502;2024-02-15T10:27:40;101315.25;;;12.03;100.00
2268;BME280;11052;43.338;25.502;2024-02-15T10:30:17;101306.78;;;11.92;100.00
2268;BME280;11052;43.338;25.502;2024-02-15T10:32:45;101303.16;;;12.01;100.00
2268;BME280;11052;43.338;25.502;2024-02-15T10:35:20;101305.34;;;12.19;100.00
2268;BME280;11052;43.338;25.502;2024-02-15T10:37:48;101304.13;;;11.97;100.00
2268;BME280;11052;43.338;25.502;2024-02-15T10:40:21;101300.00;;;12.27;100.00
2268;BME280;11052;43.338;25.502;2024-02-15T10:42:51;101303.06;;;12.45;100.00
2268;BME280;11052;43.338;25.502;2024-02-15T10:45:18;101297.41;;;12.67;100.00
2268;BME280;11052;43.338;25.502;2024-02-15T10:47:46;101299.50;;;12.88;100.00
2268;BME280;11052;43.338;25.502;2024-02-15T10:50:14;101305.59;;;12.87;100.00
2268;BME280;11052;43.338;25.502;2024-02-15T10:52:48;101301.59;;;12.72;100.00
2268;BME280;11052;43.338;25.502;2024-02-15T10:55:26;101301.91;;;12.59;100.00
2268;BME280;11052;43.338;25.502;2024-02-15T10:58:01;101297.19;;;12.37;100.00
2268;BME280;11052;43.338;25.502;2024-02-15T11:00:30;101298.28;;;12.26;100.00
2268;BME280;11052;43.338;25.502;2024-02-15T11:03:01;101307.88;;;12.24;100.00
2268;BME280;11052;43.338;25.502;2024-02-15T11:05:32;101299.66;;;12.03;100.00
2268;BME280;11052;43.338;25.502;2024-02-15T11:08:01;101297.66;;;12.14;100.00
2268;BME280;11052;43.338;25.502;2024-02-15T11:10:31;101296.72;;;12.19;100.00
2268;BME280;11052;43.338;25.502;2024-02-15T11:12:59;101294.16;;;12.15;100.00
2268;BME280;11052;43.338;25.502;2024-02-15T11:15:41;101293.91;;;11.88;100.00
2268;BME280;11052;43.338;25.502;2024-02-15T11:18:11;101290.84;;;11.64;100.00
2268;BME280;11052;43.338;25.502;2024-02-15T11:20:49;101287.16;;;11.77;100.00
2268;BME280;11052;43.338;25.502;2024-02-15T11:23:25;101283.44;;;11.91;100.00
2268;BME280;11052;43.338;25.502;2024-02-15T11:25:57;101281.09;;;11.75;100.00
2268;BME280;11052;43.338;25.502;2024-02-15T11:28:50;101279.53;;;11.67;100.00
2268;BME280;11052;43.338;25.502;2024-02-15T12:59:12;101230.75;;;11.38;100.00
2268;BME280;11052;43.338;25.502;2024-02-15T13:01:40;101229.06;;;11.35;100.00
2268;BME280;11052;43.338;25.502;2024-02-15T13:04:07;101228.03;;;11.44;100.00
2268;BME280;11052;43.338;25.502;2024-02-15T13:06:34;101222.81;;;11.45;100.00
2268;BME280;11052;43.338;25.502;2024-02-15T13:09:02;101225.41;;;11.45;100.00
2268;BME280;11052;43.338;25.502;2024-02-15T13:11:31;101226.19;;;11.50;100.00
2268;BME280;11052;43.338;25.502;2024-02-15T13:13:59;101230.38;;;11.58;100.00
2268;BME280;11052;43.338;25.502;2024-02-15T13:16:28;101229.72;;;11.46;100.00
2268;BME280;11052;43.338;25.502;2024-02-15T13:18:56;101233.34;;;11.38;100.00
2268;BME280;11052;43.338;25.502;2024-02-15T13:21:24;101230.28;;;11.16;100.00
2268;BME280;11052;43.338;25.502;2024-02-15T13:23:55;101229.66;;;11.03;100.00
2268;BME280;11052;43.338;25.502;2024-02-15T13:26:22;101226.16;;;11.06;100.00
2268;BME280;11052;43.338;25.502;2024-02-15T13:28:52;101227.88;;;11.05;100.00
2268;BME280;11052;43.338;25.502;2024-02-15T13:31:19;101228.78;;;11.03;100.00
2268;BME280;11052;43.338;25.502;2024-02-15T13:33:48;101233.19;;;10.98;100.00
2268;BME280;11052;43.338;25.502;2024-02-15T13:36:15;101230.75;;;10.89;100.00
2268;BME280;11052;43.338;25.502;2024-02-15T13:38:42;101228.88;;;10.98;100.00
2268;BME280;11052;43.338;25.502;2024-02-15T13:41:09;101232.41;;;10.93;100.00
2268;BME280;11052;43.338;25.502;2024-02-15T13:43:37;101226.31;;;10.97;100.00
2268;BME280;11052;43.338;25.502;2024-02-15T13:46:06;101233.28;;;10.93;100.00
2268;BME280;11052;43.338;25.502;2024-02-15T13:48:34;101228.91;;;10.97;100.00
2268;BME280;11052;43.338;25.502;2024-02-15T13:51:03;101227.13;;;10.99;100.00
2268;BME280;11052;43.338;25.502;2024-02-15T13:53:34;101235.09;;;10.88;100.00
2268;BME280;11052;43.338;25.502;2024-02-15T13:56:01;101228.34;;;10.78;100.00
2268;BME280;11052;43.338;25.502;2024-02-15T13:58:29;101228.59;;;10.61;100.00
2268;BME280;11052;43.338;25.502;2024-02-15T14:00:56;101238.31;;;10.47;100.00
2268;BME280;11052;43.338;25.502;2024-02-15T14:03:26;101234.13;;;10.40;100.00
2268;BME280;11052;43.338;25.502;2024-02-15T14:05:53;101229.16;;;10.25;100.00
2268;BME280;11052;43.338;25.502;2024-02-15T14:08:21;101231.75;;;10.25;100.00
2268;BME280;11052;43.338;25.502;2024-02-15T14:10:51;101232.66;;;10.19;100.00
2268;BME280;11052;43.338;25.502;2024-02-15T14:13:18;101234.38;;;10.18;100.00
2268;BME280;11052;43.338;25.502;2024-02-15T14:15:47;101238.56;;;10.32;100.00
2268;BME280;11052;43.338;25.502;2024-02-15T14:18:14;101239.22;;;10.43;100.00
2268;BME280;11052;43.338;25.502;2024-02-15T14:20:43;101240.94;;;10.45;100.00